createdAt,value
2018-04-08T00:00:01.723Z,16.10
2018-04-08T00:01:01.656Z,15.60
2018-04-08T00:02:01.594Z,13.30
2018-04-08T00:03:01.535Z,14.20
2018-04-08T00:04:01.466Z,14.30
2018-04-08T00:05:01.402Z,15.40
2018-04-08T00:06:01.340Z,13.00
2018-04-08T00:07:01.275Z,15.50
2018-04-08T00:08:01.209Z,14.60
2018-04-08T00:09:01.144Z,14.30
2018-04-08T00:10:01.083Z,14.00
2018-04-08T00:11:01.124Z,13.00
2018-04-08T00:12:00.954Z,13.90
2018-04-08T00:13:00.889Z,14.00
2018-04-08T00:14:00.825Z,13.70
2018-04-08T00:15:00.762Z,13.70
2018-04-08T00:16:00.693Z,12.40
2018-04-08T00:17:00.632Z,14.00
2018-04-08T00:18:00.579Z,13.60
2018-04-08T00:19:00.505Z,14.30
2018-04-08T00:20:00.441Z,12.80
2018-04-08T00:21:00.380Z,13.50
2018-04-08T00:22:00.314Z,14.00
2018-04-08T00:23:00.250Z,13.70
2018-04-08T00:24:00.186Z,14.40
2018-04-08T00:25:00.122Z,13.40
2018-04-08T00:26:00.052Z,13.20
2018-04-08T00:26:59.993Z,13.50
2018-04-08T00:27:59.930Z,14.10
2018-04-08T00:28:59.864Z,12.70
2018-04-08T00:29:59.802Z,15.60
2018-04-08T00:30:59.739Z,13.40
2018-04-08T00:31:59.684Z,13.70
2018-04-08T00:32:59.610Z,13.40
2018-04-08T00:33:59.549Z,13.60
2018-04-08T00:34:59.494Z,14.30
2018-04-08T00:35:59.417Z,14.10
2018-04-08T00:36:59.353Z,14.80
2018-04-08T00:37:59.288Z,13.20
2018-04-08T00:38:59.224Z,14.30
2018-04-08T00:39:59.160Z,13.30
2018-04-08T00:40:59.097Z,14.10
2018-04-08T00:41:59.033Z,14.80
2018-04-08T00:42:58.971Z,12.80
2018-04-08T00:43:58.904Z,13.00
2018-04-08T00:44:58.843Z,15.40
2018-04-08T00:45:58.777Z,13.70
2018-04-08T00:46:58.714Z,13.30
2018-04-08T00:47:58.661Z,13.10
2018-04-08T00:48:58.584Z,13.00
2018-04-08T00:49:58.521Z,13.90
2018-04-08T00:50:58.458Z,12.80
2018-04-08T00:51:58.411Z,13.00
2018-04-08T00:52:58.326Z,13.20
2018-04-08T00:53:58.262Z,13.10
2018-04-08T00:54:58.213Z,13.70
2018-04-08T00:55:58.131Z,13.60
2018-04-08T00:56:58.075Z,14.10
2018-04-08T00:57:58.010Z,13.10
2018-04-08T00:58:57.943Z,14.10
2018-04-08T00:59:57.878Z,14.90
2018-04-08T01:00:57.822Z,13.00
2018-04-08T01:01:57.750Z,13.60
2018-04-08T01:02:57.686Z,14.00
2018-04-08T01:03:57.621Z,13.40
2018-04-08T01:04:57.558Z,14.60
2018-04-08T01:05:57.502Z,14.10
2018-04-08T01:06:57.439Z,13.00
2018-04-08T01:07:57.365Z,13.90
2018-04-08T01:08:57.303Z,13.00
2018-04-08T01:09:57.240Z,14.80
2018-04-08T01:10:57.177Z,14.80
2018-04-08T01:11:57.111Z,13.00
2018-04-08T01:12:57.045Z,13.40
2018-04-08T01:13:56.981Z,15.80
2018-04-08T01:14:56.918Z,14.10
2018-04-08T01:15:56.853Z,13.80
2018-04-08T01:16:56.784Z,16.10
2018-04-08T01:17:56.723Z,13.30
2018-04-08T01:18:56.666Z,13.50
2018-04-08T01:19:56.594Z,13.60
2018-04-08T01:20:56.532Z,15.10
2018-04-08T01:21:56.467Z,13.40
2018-04-08T01:22:56.402Z,13.10
2018-04-08T01:23:56.339Z,14.50
2018-04-08T01:24:56.274Z,15.30
2018-04-08T01:25:56.210Z,13.80
2018-04-08T01:26:56.148Z,12.50
2018-04-08T01:27:56.081Z,14.20
2018-04-08T01:28:56.018Z,13.70
2018-04-08T01:29:55.954Z,13.80
2018-04-08T01:30:55.889Z,13.50
2018-04-08T01:31:55.826Z,14.90
2018-04-08T01:32:55.760Z,13.90
2018-04-08T01:33:55.696Z,13.20
2018-04-08T01:34:55.628Z,13.40
2018-04-08T01:35:55.567Z,13.90
2018-04-08T01:36:55.504Z,14.30
2018-04-08T01:37:55.440Z,15.50
2018-04-08T01:38:55.384Z,13.90
2018-04-08T01:39:55.311Z,14.50
2018-04-08T01:40:55.248Z,14.10
2018-04-08T01:41:55.181Z,15.90
2018-04-08T01:42:55.117Z,13.60
2018-04-08T01:43:55.051Z,14.50
2018-04-08T01:44:54.995Z,14.70
2018-04-08T01:45:54.925Z,15.50
2018-04-08T01:46:54.859Z,14.20
2018-04-08T01:47:54.795Z,15.10
2018-04-08T01:48:54.734Z,15.20
2018-04-08T01:49:54.667Z,14.70
2018-04-08T01:50:54.601Z,15.70
2018-04-08T01:51:54.536Z,15.10
2018-04-08T01:52:54.476Z,14.30
2018-04-08T01:53:54.405Z,14.10
2018-04-08T01:54:54.343Z,14.40
2018-04-08T01:55:54.289Z,14.60
2018-04-08T01:56:54.215Z,15.00
2018-04-08T01:57:54.153Z,14.90
2018-04-08T01:58:54.087Z,16.00
2018-04-08T01:59:54.021Z,15.50
2018-04-08T02:00:53.958Z,16.10
2018-04-08T02:01:53.894Z,14.60
2018-04-08T02:02:53.848Z,14.30
2018-04-08T02:03:53.760Z,16.50
2018-04-08T02:04:53.698Z,14.60
2018-04-08T02:05:53.634Z,14.40
2018-04-08T02:06:53.569Z,17.00
2018-04-08T02:07:53.506Z,15.20
2018-04-08T02:08:53.448Z,14.80
2018-04-08T02:09:53.376Z,14.70
2018-04-08T02:10:53.305Z,14.80
2018-04-08T02:11:53.248Z,14.90
2018-04-08T02:12:53.179Z,15.60
2018-04-08T02:13:53.120Z,14.50
2018-04-08T02:14:53.052Z,15.10
2018-04-08T02:15:52.986Z,14.60
2018-04-08T02:16:52.937Z,15.50
2018-04-08T02:17:52.857Z,15.10
2018-04-08T02:18:52.794Z,16.30
2018-04-08T02:19:52.746Z,15.60
2018-04-08T02:20:52.663Z,15.60
2018-04-08T02:21:52.599Z,15.20
2018-04-08T02:22:52.533Z,15.70
2018-04-08T02:23:52.474Z,14.10
2018-04-08T02:24:52.404Z,14.80
2018-04-08T02:25:52.340Z,14.40
2018-04-08T02:26:52.285Z,14.40
2018-04-08T02:27:52.209Z,14.90
2018-04-08T02:28:52.146Z,14.10
2018-04-08T02:29:52.080Z,16.20
2018-04-08T02:30:52.017Z,14.90
2018-04-08T02:31:51.957Z,14.60
2018-04-08T02:32:51.886Z,15.70
2018-04-08T02:33:51.836Z,15.70
2018-04-08T02:34:51.756Z,14.70
2018-04-08T02:35:51.691Z,16.00
2018-04-08T02:36:51.628Z,15.10
2018-04-08T02:37:51.562Z,14.20
2018-04-08T02:38:51.500Z,14.80
2018-04-08T02:39:51.432Z,15.30
2018-04-08T02:40:51.364Z,15.30
2018-04-08T02:41:51.300Z,15.10
2018-04-08T02:42:51.240Z,15.50
2018-04-08T02:43:51.177Z,15.50
2018-04-08T02:44:51.114Z,16.50
2018-04-08T02:45:51.045Z,14.80
2018-04-08T02:46:50.978Z,15.30
2018-04-08T02:47:50.916Z,15.00
2018-04-08T02:48:50.845Z,15.30
2018-04-08T02:49:50.786Z,14.90
2018-04-08T02:50:50.719Z,15.50
2018-04-08T02:51:50.654Z,16.00
2018-04-08T02:52:50.588Z,15.10
2018-04-08T02:53:50.525Z,15.90
2018-04-08T02:54:50.459Z,16.20
2018-04-08T02:55:50.399Z,14.70
2018-04-08T02:56:50.327Z,14.60
2018-04-08T02:57:50.265Z,14.90
2018-04-08T02:58:50.200Z,15.10
2018-04-08T02:59:50.135Z,15.60
2018-04-08T03:00:50.071Z,16.30
2018-04-08T03:01:50.005Z,14.60
2018-04-08T03:02:49.938Z,15.30
2018-04-08T03:03:49.873Z,15.10
2018-04-08T03:04:49.808Z,15.70
2018-04-08T03:05:49.745Z,17.40
2018-04-08T03:06:49.678Z,15.50
2018-04-08T03:07:49.613Z,17.50
2018-04-08T03:08:49.558Z,16.60
2018-04-08T03:09:49.480Z,16.70
2018-04-08T03:10:49.418Z,16.50
2018-04-08T03:11:49.354Z,15.80
2018-04-08T03:12:49.286Z,16.00
2018-04-08T03:13:49.222Z,15.70
2018-04-08T03:14:49.159Z,17.10
2018-04-08T03:15:49.092Z,16.60
2018-04-08T03:16:49.027Z,15.50
2018-04-08T03:17:48.966Z,18.00
2018-04-08T03:18:48.897Z,15.20
2018-04-08T03:19:48.831Z,16.90
2018-04-08T03:20:48.767Z,14.80
2018-04-08T03:21:48.709Z,16.70
2018-04-08T03:22:48.637Z,17.30
2018-04-08T03:23:48.571Z,15.70
2018-04-08T03:24:48.505Z,16.50
2018-04-08T03:25:48.441Z,17.10
2018-04-08T03:26:48.375Z,18.00
2018-04-08T03:27:48.309Z,16.70
2018-04-08T03:28:48.248Z,16.40
2018-04-08T03:29:48.180Z,15.90
2018-04-08T03:30:48.113Z,16.00
2018-04-08T03:31:48.050Z,17.20
2018-04-08T03:32:48.001Z,16.40
2018-04-08T03:33:47.919Z,16.70
2018-04-08T03:34:47.853Z,16.20
2018-04-08T03:35:47.788Z,16.40
2018-04-08T03:36:47.730Z,15.50
2018-04-08T03:37:47.657Z,16.40
2018-04-08T03:38:47.596Z,17.00
2018-04-08T03:39:47.524Z,16.40
2018-04-08T03:40:47.460Z,17.70
2018-04-08T03:41:47.413Z,17.80
2018-04-08T03:42:47.330Z,15.80
2018-04-08T03:43:47.262Z,16.10
2018-04-08T03:44:47.199Z,15.80
2018-04-08T03:45:47.134Z,17.00
2018-04-08T03:46:47.096Z,16.60
2018-04-08T03:47:47.003Z,16.10
2018-04-08T03:48:46.939Z,16.80
2018-04-08T03:49:46.874Z,15.90
2018-04-08T03:50:46.806Z,16.00
2018-04-08T03:51:46.740Z,15.70
2018-04-08T03:52:46.676Z,16.30
2018-04-08T03:53:46.614Z,15.90
2018-04-08T03:54:46.545Z,17.00
2018-04-08T03:55:46.481Z,16.60
2018-04-08T03:56:46.413Z,16.50
2018-04-08T03:57:46.348Z,16.20
2018-04-08T03:58:46.280Z,18.70
2018-04-08T03:59:46.220Z,18.60
2018-04-08T04:00:46.151Z,18.00
2018-04-08T04:01:46.095Z,16.40
2018-04-08T04:02:46.022Z,16.50
2018-04-08T04:03:45.955Z,16.90
2018-04-08T04:04:45.899Z,17.30
2018-04-08T04:05:45.821Z,15.80
2018-04-08T04:06:45.759Z,18.80
2018-04-08T04:07:45.690Z,16.80
2018-04-08T04:08:45.627Z,17.20
2018-04-08T04:09:45.565Z,17.10
2018-04-08T04:10:45.501Z,18.20
2018-04-08T04:11:45.430Z,16.40
2018-04-08T04:12:45.375Z,17.10
2018-04-08T04:13:45.299Z,16.60
2018-04-08T04:14:45.232Z,18.50
2018-04-08T04:15:45.176Z,18.30
2018-04-08T04:16:45.102Z,16.80
2018-04-08T04:17:45.033Z,17.30
2018-04-08T04:18:44.982Z,16.80
2018-04-08T04:19:44.904Z,16.10
2018-04-08T04:20:44.838Z,17.40
2018-04-08T04:21:44.775Z,16.70
2018-04-08T04:22:44.721Z,16.30
2018-04-08T04:23:44.637Z,16.50
2018-04-08T04:24:44.575Z,18.40
2018-04-08T04:25:44.511Z,17.10
2018-04-08T04:26:44.453Z,18.40
2018-04-08T04:27:44.378Z,17.10
2018-04-08T04:28:44.314Z,18.50
2018-04-08T04:29:44.248Z,17.00
2018-04-08T04:30:44.181Z,16.90
2018-04-08T04:31:44.114Z,17.80
2018-04-08T04:32:44.051Z,17.40
2018-04-08T04:33:43.984Z,16.40
2018-04-08T04:34:43.920Z,17.00
2018-04-08T04:35:43.863Z,17.10
2018-04-08T04:36:43.802Z,17.40
2018-04-08T04:37:43.727Z,17.60
2018-04-08T04:38:43.657Z,16.40
2018-04-08T04:39:43.591Z,17.90
2018-04-08T04:40:43.525Z,18.80
2018-04-08T04:41:43.458Z,16.90
2018-04-08T04:42:43.393Z,16.60
2018-04-08T04:43:43.327Z,17.70
2018-04-08T04:44:43.260Z,16.20
2018-04-08T04:45:43.203Z,17.40
2018-04-08T04:46:43.129Z,17.00
2018-04-08T04:47:43.084Z,18.10
2018-04-08T04:48:42.999Z,16.30
2018-04-08T04:49:42.930Z,15.70
2018-04-08T04:50:42.865Z,17.30
2018-04-08T04:51:42.799Z,16.40
2018-04-08T04:52:42.738Z,18.90
2018-04-08T04:53:42.668Z,16.90
2018-04-08T04:54:42.602Z,17.40
2018-04-08T04:55:42.536Z,17.50
2018-04-08T04:56:42.471Z,18.60
2018-04-08T04:57:42.404Z,16.40
2018-04-08T04:58:42.353Z,17.30
2018-04-08T04:59:42.268Z,16.10
2018-04-08T05:00:42.205Z,16.70
2018-04-08T05:01:42.140Z,16.70
2018-04-08T05:02:42.074Z,16.80
2018-04-08T05:03:42.050Z,18.60
2018-04-08T05:04:41.942Z,17.20
2018-04-08T05:05:41.876Z,18.00
2018-04-08T05:06:41.811Z,17.50
2018-04-08T05:07:41.744Z,17.70
2018-04-08T05:08:41.679Z,20.90
2018-04-08T05:09:41.614Z,17.50
2018-04-08T05:10:41.547Z,20.50
2018-04-08T05:11:41.483Z,19.70
2018-04-08T05:12:41.416Z,20.50
2018-04-08T05:13:41.347Z,18.60
2018-04-08T05:14:41.284Z,17.10
2018-04-08T05:15:41.216Z,19.50
2018-04-08T05:16:41.150Z,16.90
2018-04-08T05:17:41.091Z,18.60
2018-04-08T05:18:41.027Z,18.70
2018-04-08T05:19:40.952Z,20.30
2018-04-08T05:20:40.886Z,18.10
2018-04-08T05:21:40.821Z,18.70
2018-04-08T05:22:40.753Z,18.50
2018-04-08T05:23:40.694Z,19.10
2018-04-08T05:24:40.623Z,18.40
2018-04-08T05:25:40.556Z,18.50
2018-04-08T05:26:40.491Z,18.30
2018-04-08T05:27:40.430Z,17.90
2018-04-08T05:28:40.359Z,17.80
2018-04-08T05:29:40.294Z,19.00
2018-04-08T05:30:40.226Z,17.70
2018-04-08T05:31:40.160Z,17.70
2018-04-08T05:32:40.095Z,18.00
2018-04-08T05:33:40.029Z,18.50
2018-04-08T05:34:39.964Z,17.30
2018-04-08T05:35:39.900Z,19.10
2018-04-08T05:36:39.832Z,18.20
2018-04-08T05:37:39.765Z,18.00
2018-04-08T05:38:39.700Z,18.80
2018-04-08T05:39:39.631Z,17.40
2018-04-08T05:40:39.567Z,17.20
2018-04-08T05:41:39.501Z,17.60
2018-04-08T05:42:39.430Z,17.50
2018-04-08T05:43:39.373Z,18.70
2018-04-08T05:44:39.302Z,19.00
2018-04-08T05:45:39.243Z,18.40
2018-04-08T05:46:39.172Z,18.00
2018-04-08T05:47:39.106Z,17.40
2018-04-08T05:48:39.047Z,18.00
2018-04-08T05:49:38.976Z,18.60
2018-04-08T05:50:38.908Z,20.40
2018-04-08T05:51:38.842Z,20.60
2018-04-08T05:52:38.778Z,17.60
2018-04-08T05:53:38.711Z,18.50
2018-04-08T05:54:38.647Z,19.90
2018-04-08T05:55:38.578Z,21.40
2018-04-08T05:56:38.514Z,18.30
2018-04-08T05:57:38.448Z,18.40
2018-04-08T05:58:38.382Z,20.90
2018-04-08T05:59:38.321Z,20.90
2018-04-08T06:00:38.261Z,19.80
2018-04-08T06:01:38.185Z,19.00
2018-04-08T06:02:38.119Z,19.70
2018-04-08T06:03:38.053Z,19.30
2018-04-08T06:04:37.988Z,20.40
2018-04-08T06:05:37.924Z,20.30
2018-04-08T06:06:37.865Z,20.20
2018-04-08T06:07:37.791Z,22.30
2018-04-08T06:08:37.728Z,20.10
2018-04-08T06:09:37.662Z,20.10
2018-04-08T06:10:37.596Z,19.30
2018-04-08T06:11:37.530Z,19.20
2018-04-08T06:12:37.465Z,19.40
2018-04-08T06:13:37.397Z,19.90
2018-04-08T06:14:37.334Z,21.70
2018-04-08T06:15:37.268Z,20.50
2018-04-08T06:16:37.206Z,20.10
2018-04-08T06:17:37.171Z,21.80
2018-04-08T06:18:37.072Z,21.50
2018-04-08T06:19:37.003Z,20.10
2018-04-08T06:20:36.953Z,18.90
2018-04-08T06:21:36.876Z,21.10
2018-04-08T06:22:36.812Z,20.30
2018-04-08T06:23:36.744Z,19.80
2018-04-08T06:24:36.679Z,20.80
2018-04-08T06:25:36.615Z,19.10
2018-04-08T06:26:36.550Z,19.50
2018-04-08T06:27:36.478Z,20.10
2018-04-08T06:28:36.414Z,20.70
2018-04-08T06:29:36.352Z,21.70
2018-04-08T06:30:36.288Z,19.70
2018-04-08T06:31:36.222Z,21.40
2018-04-08T06:32:36.156Z,19.90
2018-04-08T06:33:36.091Z,19.50
2018-04-08T06:34:36.029Z,20.70
2018-04-08T06:35:35.963Z,20.10
2018-04-08T06:36:35.902Z,22.20
2018-04-08T06:37:35.832Z,19.30
2018-04-08T06:38:35.767Z,21.30
2018-04-08T06:39:35.701Z,21.00
2018-04-08T06:40:35.649Z,21.20
2018-04-08T06:41:35.574Z,21.50
2018-04-08T06:42:35.506Z,20.70
2018-04-08T06:43:35.455Z,21.20
2018-04-08T06:44:35.375Z,22.70
2018-04-08T06:45:35.312Z,21.00
2018-04-08T06:46:35.247Z,21.30
2018-04-08T06:47:35.180Z,20.80
2018-04-08T06:48:35.116Z,21.90
2018-04-08T06:49:35.052Z,23.80
2018-04-08T06:50:34.988Z,21.50
2018-04-08T06:51:34.921Z,23.00
2018-04-08T06:52:34.856Z,20.10
2018-04-08T06:53:34.791Z,21.30
2018-04-08T06:54:34.728Z,22.70
2018-04-08T06:55:34.664Z,23.00
2018-04-08T06:56:34.595Z,23.30
2018-04-08T06:57:34.533Z,20.90
2018-04-08T06:58:34.468Z,22.30
2018-04-08T06:59:34.403Z,22.30
2018-04-08T07:00:34.339Z,22.40
2018-04-08T07:01:34.274Z,21.60
2018-04-08T07:02:34.210Z,20.80
2018-04-08T07:03:34.149Z,19.80
2018-04-08T07:04:34.081Z,20.60
2018-04-08T07:05:34.016Z,21.80
2018-04-08T07:06:33.952Z,22.40
2018-04-08T07:07:33.891Z,20.20
2018-04-08T07:08:33.823Z,20.60
2018-04-08T07:09:33.757Z,21.10
2018-04-08T07:10:33.694Z,20.60
2018-04-08T07:11:33.627Z,21.10
2018-04-08T07:12:33.564Z,21.50
2018-04-08T07:13:33.500Z,21.10
2018-04-08T07:14:33.435Z,23.00
2018-04-08T07:15:33.370Z,22.20
2018-04-08T07:16:33.306Z,22.90
2018-04-08T07:17:33.242Z,20.50
2018-04-08T07:18:33.250Z,22.30
2018-04-08T07:19:33.118Z,22.40
2018-04-08T07:20:33.052Z,22.40
2018-04-08T07:21:32.989Z,22.10
2018-04-08T07:22:32.920Z,22.10
2018-04-08T07:23:32.856Z,22.40
2018-04-08T07:24:32.810Z,20.90
2018-04-08T07:25:32.732Z,22.40
2018-04-08T07:26:32.664Z,20.50
2018-04-08T07:27:32.600Z,22.30
2018-04-08T07:28:32.537Z,21.10
2018-04-08T07:29:32.471Z,20.40
2018-04-08T07:30:32.410Z,20.80
2018-04-08T07:31:32.343Z,21.30
2018-04-08T07:32:32.298Z,21.80
2018-04-08T07:33:32.215Z,21.60
2018-04-08T07:34:32.151Z,22.00
2018-04-08T07:35:32.086Z,20.80
2018-04-08T07:36:32.019Z,23.10
2018-04-08T07:37:31.960Z,22.30
2018-04-08T07:38:31.894Z,21.70
2018-04-08T07:39:31.839Z,21.50
2018-04-08T07:40:31.764Z,20.90
2018-04-08T07:41:31.703Z,22.20
2018-04-08T07:42:31.639Z,21.70
2018-04-08T07:43:31.590Z,23.10
2018-04-08T07:44:31.511Z,20.90
2018-04-08T07:45:31.447Z,22.70
2018-04-08T07:46:31.384Z,21.50
2018-04-08T07:47:31.315Z,21.30
2018-04-08T07:48:31.279Z,23.00
2018-04-08T07:49:31.190Z,22.10
2018-04-08T07:50:31.128Z,21.20
2018-04-08T07:51:31.065Z,22.30
2018-04-08T07:52:31.009Z,20.90
2018-04-08T07:53:30.938Z,21.60
2018-04-08T07:54:30.874Z,21.90
2018-04-08T07:55:30.811Z,22.90
2018-04-08T07:56:30.745Z,21.70
2018-04-08T07:57:30.684Z,21.60
2018-04-08T07:58:30.620Z,23.10
2018-04-08T07:59:30.555Z,22.00
2018-04-08T08:00:30.489Z,22.50
2018-04-08T08:01:30.431Z,22.70
2018-04-08T08:02:30.365Z,22.40
2018-04-08T08:03:30.303Z,20.90
2018-04-08T08:04:30.237Z,23.70
2018-04-08T08:05:30.176Z,21.00
2018-04-08T08:06:30.115Z,21.20
2018-04-08T08:07:30.048Z,22.40
2018-04-08T08:08:29.983Z,23.10
2018-04-08T08:09:29.938Z,21.10
2018-04-08T08:10:29.853Z,21.90
2018-04-08T08:11:29.793Z,21.90
2018-04-08T08:12:29.731Z,22.00
2018-04-08T08:13:29.668Z,22.90
2018-04-08T08:14:29.603Z,22.70
2018-04-08T08:15:29.540Z,24.60
2018-04-08T08:16:29.482Z,21.80
2018-04-08T08:17:29.417Z,22.50
2018-04-08T08:18:29.351Z,21.40
2018-04-08T08:19:29.288Z,21.80
2018-04-08T08:20:29.225Z,21.30
2018-04-08T08:21:29.162Z,22.90
2018-04-08T08:22:29.099Z,21.80
2018-04-08T08:23:29.033Z,21.20
2018-04-08T08:24:28.973Z,21.60
2018-04-08T08:25:28.925Z,22.70
2018-04-08T08:26:28.848Z,21.80
2018-04-08T08:27:28.783Z,23.20
2018-04-08T08:28:28.722Z,21.40
2018-04-08T08:29:28.663Z,21.00
2018-04-08T08:30:28.597Z,21.10
2018-04-08T08:31:28.532Z,20.60
2018-04-08T08:32:28.467Z,22.40
2018-04-08T08:33:28.407Z,22.70
2018-04-08T08:34:28.358Z,20.50
2018-04-08T08:35:28.278Z,22.60
2018-04-08T08:36:28.213Z,19.90
2018-04-08T08:37:28.155Z,20.90
2018-04-08T08:38:28.093Z,20.70
2018-04-08T08:39:28.030Z,20.90
2018-04-08T08:40:27.971Z,20.60
2018-04-08T08:41:27.908Z,20.70
2018-04-08T08:42:27.840Z,21.60
2018-04-08T08:43:27.784Z,21.70
2018-04-08T08:44:27.714Z,21.50
2018-04-08T08:45:27.676Z,20.90
2018-04-08T08:46:27.591Z,21.20
2018-04-08T08:47:27.527Z,20.60
2018-04-08T08:48:27.476Z,19.80
2018-04-08T08:49:27.399Z,21.20
2018-04-08T08:50:27.343Z,21.00
2018-04-08T08:51:27.277Z,20.40
2018-04-08T08:52:27.213Z,21.10
2018-04-08T08:53:27.151Z,20.20
2018-04-08T08:54:27.091Z,20.20
2018-04-08T08:55:27.025Z,20.20
2018-04-08T08:56:26.965Z,21.40
2018-04-08T08:57:26.902Z,19.90
2018-04-08T08:58:26.838Z,19.30
2018-04-08T08:59:26.777Z,20.90
2018-04-08T09:00:26.716Z,20.10
2018-04-08T09:01:26.651Z,20.30
2018-04-08T09:02:26.592Z,20.00
2018-04-08T09:03:26.528Z,20.80
2018-04-08T09:04:26.479Z,19.20
2018-04-08T09:05:26.403Z,19.80
2018-04-08T09:06:26.341Z,19.30
2018-04-08T09:07:26.277Z,20.20
2018-04-08T09:08:26.213Z,19.90
2018-04-08T09:09:26.154Z,19.50
2018-04-08T09:10:26.092Z,18.80
2018-04-08T09:11:26.031Z,19.20
2018-04-08T09:12:25.967Z,20.20
2018-04-08T09:13:25.906Z,18.40
2018-04-08T09:14:25.844Z,18.60
2018-04-08T09:15:25.782Z,18.30
2018-04-08T09:16:25.720Z,18.70
2018-04-08T09:17:25.687Z,20.50
2018-04-08T09:18:25.595Z,19.10
2018-04-08T09:19:25.530Z,19.60
2018-04-08T09:20:25.472Z,19.70
2018-04-08T09:21:25.410Z,20.30
2018-04-08T09:22:25.344Z,21.20
2018-04-08T09:23:25.285Z,20.70
2018-04-08T09:24:25.230Z,18.90
2018-04-08T09:25:25.162Z,20.00
2018-04-08T09:26:25.101Z,19.90
2018-04-08T09:27:25.041Z,22.30
2018-04-08T09:28:24.976Z,18.20
2018-04-08T09:29:24.935Z,19.90
2018-04-08T09:30:24.865Z,19.90
2018-04-08T09:31:24.791Z,19.40
2018-04-08T09:32:24.730Z,18.70
2018-04-08T09:33:24.669Z,19.00
2018-04-08T09:34:24.607Z,19.80
2018-04-08T09:35:24.543Z,19.80
2018-04-08T09:36:24.557Z,21.00
2018-04-08T09:37:24.422Z,20.10
2018-04-08T09:38:24.362Z,20.40
2018-04-08T09:39:24.308Z,20.10
2018-04-08T09:40:24.237Z,19.40
2018-04-08T09:41:24.181Z,19.70
2018-04-08T09:42:24.115Z,20.20
2018-04-08T09:43:24.054Z,20.90
2018-04-08T09:44:23.995Z,20.20
2018-04-08T09:45:23.931Z,20.20
2018-04-08T09:46:23.871Z,20.40
2018-04-08T09:47:23.806Z,20.70
2018-04-08T09:48:23.749Z,20.60
2018-04-08T09:49:23.690Z,19.70
2018-04-08T09:50:23.627Z,20.00
2018-04-08T09:51:23.565Z,20.50
2018-04-08T09:52:23.501Z,21.00
2018-04-08T09:53:23.445Z,20.40
2018-04-08T09:54:23.384Z,21.20
2018-04-08T09:55:23.321Z,20.80
2018-04-08T09:56:23.268Z,20.70
2018-04-08T09:57:23.201Z,20.40
2018-04-08T09:58:23.136Z,20.10
2018-04-08T09:59:23.077Z,21.10
2018-04-08T10:00:23.017Z,21.80
2018-04-08T10:01:22.955Z,20.20
2018-04-08T10:02:22.898Z,20.70
2018-04-08T10:03:22.851Z,21.70
2018-04-08T10:04:22.776Z,20.40
2018-04-08T10:05:22.777Z,23.30
2018-04-08T10:06:22.657Z,21.70
2018-04-08T10:07:22.614Z,20.50
2018-04-08T10:08:22.533Z,20.00
2018-04-08T10:09:22.472Z,20.00
2018-04-08T10:10:22.412Z,19.60
2018-04-08T10:11:22.354Z,19.30
2018-04-08T10:12:22.292Z,19.60
2018-04-08T10:13:22.228Z,20.20
2018-04-08T10:14:22.172Z,18.90
2018-04-08T10:15:22.110Z,19.70
2018-04-08T10:16:22.046Z,19.10
2018-04-08T10:17:21.990Z,20.60
2018-04-08T10:18:21.930Z,19.90
2018-04-08T10:19:21.868Z,20.20
2018-04-08T10:20:21.811Z,19.60
2018-04-08T10:21:21.774Z,19.90
2018-04-08T10:22:21.692Z,19.70
2018-04-08T10:23:21.643Z,19.70
2018-04-08T10:24:21.575Z,19.30
2018-04-08T10:25:21.512Z,20.70
2018-04-08T10:26:21.461Z,20.70
2018-04-08T10:27:21.392Z,19.40
2018-04-08T10:28:21.334Z,20.50
2018-04-08T10:29:21.324Z,20.60
2018-04-08T10:30:21.215Z,22.10
2018-04-08T10:31:21.159Z,19.70
2018-04-08T10:32:21.094Z,20.30
2018-04-08T10:33:21.037Z,18.80
2018-04-08T10:34:20.980Z,19.70
2018-04-08T10:35:20.914Z,18.80
2018-04-08T10:36:20.880Z,18.90
2018-04-08T10:37:20.820Z,18.60
2018-04-08T10:38:20.740Z,19.20
2018-04-08T10:39:20.680Z,20.10
2018-04-08T10:40:20.620Z,20.10
2018-04-08T10:41:20.561Z,22.50
2018-04-08T10:42:20.502Z,19.70
2018-04-08T10:43:20.443Z,18.70
2018-04-08T10:44:20.383Z,20.00
2018-04-08T10:45:20.326Z,18.20
2018-04-08T10:46:20.264Z,19.50
2018-04-08T10:47:20.207Z,19.00
2018-04-08T10:48:20.147Z,19.10
2018-04-08T10:49:20.086Z,18.60
2018-04-08T10:50:20.038Z,19.30
2018-04-08T10:51:19.968Z,19.40
2018-04-08T10:52:19.909Z,20.30
2018-04-08T10:53:19.866Z,21.10
2018-04-08T10:54:19.790Z,21.80
2018-04-08T10:55:19.734Z,19.00
2018-04-08T10:56:19.680Z,21.40
2018-04-08T10:57:19.613Z,19.10
2018-04-08T10:58:19.567Z,20.60
2018-04-08T10:59:19.498Z,18.60
2018-04-08T11:00:19.442Z,19.00
2018-04-08T11:01:19.382Z,18.40
2018-04-08T11:02:19.324Z,18.80
2018-04-08T11:03:19.264Z,18.70
2018-04-08T11:04:19.206Z,18.40
2018-04-08T11:05:19.145Z,18.80
2018-04-08T11:06:19.089Z,18.80
2018-04-08T11:07:19.028Z,19.40
2018-04-08T11:08:18.970Z,19.50
2018-04-08T11:09:18.912Z,19.70
2018-04-08T11:10:18.854Z,19.10
2018-04-08T11:11:18.793Z,19.00
2018-04-08T11:12:18.737Z,19.20
2018-04-08T11:13:18.682Z,20.20
2018-04-08T11:14:18.616Z,19.10
2018-04-08T11:15:18.558Z,19.90
2018-04-08T11:16:18.502Z,22.30
2018-04-08T11:17:18.446Z,19.20
2018-04-08T11:18:18.386Z,19.00
2018-04-08T11:19:18.329Z,19.60
2018-04-08T11:20:18.271Z,19.20
2018-04-08T11:21:18.211Z,18.80
2018-04-08T11:22:18.153Z,19.10
2018-04-08T11:23:18.094Z,18.70
2018-04-08T11:24:18.036Z,20.10
2018-04-08T11:25:17.976Z,20.40
2018-04-08T11:26:17.922Z,20.80
2018-04-08T11:27:17.857Z,19.50
2018-04-08T11:28:17.799Z,19.50
2018-04-08T11:29:17.744Z,18.50
2018-04-08T11:30:17.696Z,20.40
2018-04-08T11:31:17.625Z,20.00
2018-04-08T11:32:17.567Z,21.40
2018-04-08T11:33:17.507Z,20.00
2018-04-08T11:34:17.454Z,18.60
2018-04-08T11:35:17.392Z,19.20
2018-04-08T11:36:17.333Z,18.80
2018-04-08T11:37:17.279Z,19.50
2018-04-08T11:38:17.216Z,19.70
2018-04-08T11:39:17.160Z,20.60
2018-04-08T11:40:17.100Z,20.90
2018-04-08T11:41:17.041Z,18.20
2018-04-08T11:42:16.983Z,18.40
2018-04-08T11:43:16.925Z,21.10
2018-04-08T11:44:16.866Z,18.00
2018-04-08T11:45:16.808Z,18.10
2018-04-08T11:46:16.748Z,18.00
2018-04-08T11:47:16.726Z,19.80
2018-04-08T11:48:16.628Z,19.70
2018-04-08T11:49:16.576Z,19.90
2018-04-08T11:50:16.518Z,20.70
2018-04-08T11:51:16.452Z,20.30
2018-04-08T11:52:16.396Z,19.50
2018-04-08T11:53:16.340Z,18.50
2018-04-08T11:54:16.277Z,17.90
2018-04-08T11:55:16.218Z,18.50
2018-04-08T11:56:16.161Z,19.20
2018-04-08T11:57:16.103Z,17.10
2018-04-08T11:58:16.044Z,17.60
2018-04-08T11:59:15.984Z,17.00
2018-04-08T12:00:15.926Z,20.80
2018-04-08T12:01:15.868Z,20.60
2018-04-08T12:02:15.809Z,21.20
2018-04-08T12:03:15.749Z,18.90
2018-04-08T12:04:15.691Z,19.70
2018-04-08T12:05:15.635Z,19.70
2018-04-08T12:06:15.572Z,21.00
2018-04-08T12:07:15.515Z,17.70
2018-04-08T12:08:15.455Z,19.90
2018-04-08T12:09:15.397Z,17.90
2018-04-08T12:10:15.338Z,19.80
2018-04-08T12:11:15.282Z,18.20
2018-04-08T12:12:15.220Z,20.20
2018-04-08T12:13:15.163Z,21.70
2018-04-08T12:14:15.103Z,18.90
2018-04-08T12:15:15.045Z,19.00
2018-04-08T12:16:14.988Z,18.60
2018-04-08T12:17:14.926Z,20.50
2018-04-08T12:18:14.866Z,18.70
2018-04-08T12:19:14.805Z,20.50
2018-04-08T12:20:14.754Z,18.40
2018-04-08T12:21:14.692Z,22.20
2018-04-08T12:22:14.633Z,23.10
2018-04-08T12:23:14.576Z,23.20
2018-04-08T12:24:14.516Z,20.90
2018-04-08T12:25:14.458Z,21.00
2018-04-08T12:26:14.399Z,20.90
2018-04-08T12:27:14.339Z,19.00
2018-04-08T12:28:14.281Z,23.80
2018-04-08T12:29:14.222Z,20.90
2018-04-08T12:30:14.165Z,20.00
2018-04-08T12:31:14.101Z,19.30
2018-04-08T12:32:14.047Z,20.50
2018-04-08T12:33:13.988Z,17.60
2018-04-08T12:34:13.928Z,18.60
2018-04-08T12:35:13.869Z,19.70
2018-04-08T12:36:13.813Z,19.70
2018-04-08T12:37:13.750Z,19.20
2018-04-08T12:38:13.694Z,18.50
2018-04-08T12:39:13.634Z,17.30
2018-04-08T12:40:13.576Z,18.40
2018-04-08T12:41:13.522Z,18.20
2018-04-08T12:42:13.461Z,17.70
2018-04-08T12:43:13.403Z,18.40
2018-04-08T12:44:13.341Z,16.80
2018-04-08T12:45:13.283Z,16.90
2018-04-08T12:46:13.226Z,18.50
2018-04-08T12:47:13.166Z,18.00
2018-04-08T12:48:13.108Z,18.10
2018-04-08T12:49:13.052Z,18.70
2018-04-08T12:50:12.992Z,19.10
2018-04-08T12:51:12.975Z,18.30